Time;durP1;ratioP1;P1;durP2;ratioP2;P2;SDS_P1;SDS_P2;PMS_P1;PMS_P2;Temp;Humidity;BMP_temperature;BMP_pressure;BME280_temperature;BME280_humidity;BME280_pressure;Samples;Min_cycle;Max_cycle;Signal;HPM_P1;HPM_P2
2021/01/18 00:02:01;;;;;;;86.70;39.83;;;;;;;-10.14;76.90;92765.11;1808859;79;21184;-78
2021/01/18 00:04:29;;;;;;;72.70;31.87;;;;;;;-10.22;77.00;92756.55;1809633;79;21653;-76
2021/01/18 00:06:57;;;;;;;66.17;29.50;;;;;;;-10.21;77.17;92764.14;1810137;79;21183;-78
2021/01/18 00:09:25;;;;;;;59.57;25.90;;;;;;;-10.21;77.13;92760.73;1809644;79;21701;-77
2021/01/18 00:11:53;;;;;;;59.87;27.33;;;;;;;-10.22;77.20;92761.80;1810497;79;21198;-77
2021/01/18 00:14:21;;;;;;;54.80;26.03;;;;;;;-10.26;77.14;92761.61;1810781;79;21176;-77
2021/01/18 00:16:49;;;;;;;71.20;29.27;;;;;;;-10.24;77.13;92767.33;1810404;77;21187;-78
2021/01/18 00:19:17;;;;;;;65.60;28.20;;;;;;;-10.28;77.01;92771.61;1809738;78;21187;-76
2021/01/18 00:21:46;;;;;;;62.83;28.10;;;;;;;-10.31;77.04;92762.44;1810306;78;21515;-77
2021/01/18 00:24:13;;;;;;;53.67;25.87;;;;;;;-10.31;77.13;92755.86;1810941;79;21121;-77
2021/01/18 00:26:48;;;;;;;56.47;26.37;;;;;;;-10.26;77.13;92764.78;1810312;79;21767;-77
2021/01/18 00:29:15;;;;;;;49.73;24.05;;;;;;;-10.31;77.03;92755.86;1810052;79;21173;-78
2021/01/18 00:31:44;;;;;;;52.40;24.60;;;;;;;-10.32;77.06;92761.41;1764470;79;21185;-77
2021/01/18 00:34:12;;;;;;;44.33;22.03;;;;;;;-10.34;76.90;92754.33;1782420;79;22029;-77
2021/01/18 00:36:47;;;;;;;66.97;27.70;;;;;;;-10.38;76.98;92761.22;1795268;79;21142;-77
2021/01/18 00:39:15;;;;;;;68.55;29.05;;;;;;;-10.44;76.98;92759.20;1809969;79;21227;-77
2021/01/18 00:41:42;;;;;;;54.27;26.47;;;;;;;-10.49;77.08;92748.75;1809781;79;21729;-76
2021/01/18 00:44:10;;;;;;;56.13;25.10;;;;;;;-10.47;77.18;92754.49;1809808;79;21189;-76
2021/01/18 00:46:37;;;;;;;62.27;29.60;;;;;;;-10.45;77.17;92752.38;1815159;78;21363;-77
2021/01/18 00:49:05;;;;;;;64.83;30.03;;;;;;;-10.47;77.08;92753.72;1818852;78;21252;-77
2021/01/18 00:51:39;;;;;;;56.23;26.40;;;;;;;-10.52;77.10;92758.50;1818803;78;21177;-77
2021/01/18 00:54:08;;;;;;;55.67;25.65;;;;;;;-10.49;77.33;92754.52;1810426;79;21422;-76
2021/01/18 00:56:38;;;;;;;49.87;23.20;;;;;;;-10.47;77.28;92749.23;1810388;79;21212;-77
2021/01/18 00:59:06;;;;;;;60.97;27.30;;;;;;;-10.47;77.34;92749.77;1761632;79;21417;-77
2021/01/18 01:01:41;;;;;;;62.70;28.33;;;;;;;-10.50;77.29;92749.80;1796018;78;21607;-77
2021/01/18 01:04:09;;;;;;;68.60;29.67;;;;;;;-10.54;77.32;92752.73;1792702;78;21639;-77
2021/01/18 01:06:38;;;;;;;64.13;27.13;;;;;;;-10.56;77.50;92750.94;1822041;78;21642;-75
2021/01/18 01:09:06;;;;;;;47.43;22.80;;;;;;;-10.52;77.60;92746.14;1810567;79;21157;-76
2021/01/18 01:11:34;;;;;;;64.97;29.70;;;;;;;-10.45;77.47;92752.92;1756045;80;21883;-76
2021/01/18 01:14:01;;;;;;;57.23;27.13;;;;;;;-10.43;77.44;92750.77;1795893;79;21464;-78
2021/01/18 01:16:29;;;;;;;63.67;28.73;;;;;;;-10.41;77.42;92752.60;1810373;78;21177;-75
2021/01/18 01:18:57;;;;;;;69.37;32.23;;;;;;;-10.45;77.24;92750.29;1810532;79;21377;-74
2021/01/18 01:21:25;;;;;;;65.80;31.30;;;;;;;-10.50;77.37;92751.11;1810732;79;21200;-75
2021/01/18 01:23:52;;;;;;;62.10;27.40;;;;;;;-10.49;77.66;92752.70;1809819;77;22286;-76
2021/01/18 01:26:20;;;;;;;59.70;27.40;;;;;;;-10.46;77.62;92756.05;1809969;79;22197;-75
2021/01/18 01:28:48;;;;;;;54.93;26.40;;;;;;;-10.39;77.55;92746.52;1810177;79;21636;-75
2021/01/18 01:31:16;;;;;;;49.93;24.87;;;;;;;-10.37;77.45;92755.70;1810572;77;21711;-75
2021/01/18 01:33:43;;;;;;;59.13;25.37;;;;;;;-10.41;77.42;92752.06;1811164;79;21187;-75
2021/01/18 01:36:11;;;;;;;49.43;23.43;;;;;;;-10.41;77.49;92753.92;1810070;79;21172;-74
2021/01/18 01:38:38;;;;;;;57.37;25.97;;;;;;;-10.42;77.28;92758.36;1810333;79;21233;-75
2021/01/18 01:41:06;;;;;;;51.60;23.87;;;;;;;-10.42;77.26;92757.59;1809864;77;21176;-79
2021/01/18 01:43:33;;;;;;;46.70;22.80;;;;;;;-10.44;77.31;92764.45;1810075;79;21207;-79
2021/01/18 01:46:01;;;;;;;50.23;24.60;;;;;;;-10.43;77.33;92756.03;1810269;77;21164;-78
2021/01/18 01:48:29;;;;;;;45.97;22.30;;;;;;;-10.41;77.22;92758.64;1810447;79;21726;-78
2021/01/18 01:50:57;;;;;;;49.93;22.90;;;;;;;-10.41;77.23;92761.80;1809924;77;21176;-78
2021/01/18 01:53:29;;;;;;;46.23;20.93;;;;;;;-10.41;77.19;92763.12;1810044;79;21163;-78
2021/01/18 01:56:00;;;;;;;56.20;22.60;;;;;;;-10.41;77.12;92764.43;1809438;79;21669;-78
2021/01/18 01:58:28;;;;;;;58.07;25.33;;;;;;;-10.45;77.17;92759.48;1781774;79;21138;-76
2021/01/18 02:00:58;;;;;;;63.13;26.10;;;;;;;-10.45;77.13;92762.11;1745120;82;21496;-75
2021/01/18 02:03:41;;;;;;;55.30;24.93;;;;;;;-10.48;77.01;92762.14;1792184;79;21194;-76
2021/01/18 02:06:09;;;;;;;58.10;26.63;;;;;;;-10.51;76.97;92765.32;1808877;77;21245;-77
2021/01/18 02:08:38;;;;;;;59.03;26.77;;;;;;;-10.55;76.98;92763.00;1810012;79;21513;-77
2021/01/18 02:11:06;;;;;;;64.17;26.73;;;;;;;-10.55;76.83;92761.69;1809681;78;21185;-77
2021/01/18 02:13:52;;;;;;;62.80;25.73;;;;;;;-10.58;76.72;92760.94;1810658;79;21512;-75
2021/01/18 02:16:48;;;;;;;63.55;26.45;;;;;;;-10.60;76.42;92759.91;1810474;77;21268;-75
2021/01/18 02:19:47;;;;;;;58.10;24.93;;;;;;;-10.69;76.03;92767.36;1810268;79;21148;-76
2021/01/18 02:22:41;;;;;;;54.60;24.70;;;;;;;-10.88;75.98;92762.05;1810504;79;21243;-76
2021/01/18 02:25:16;;;;;;;62.93;25.53;;;;;;;-10.95;76.20;92767.63;1809181;79;21189;-75
2021/01/18 02:28:01;;;;;;;47.57;21.57;;;;;;;-10.97;76.35;92763.20;1810125;79;21662;-75
2021/01/18 02:30:56;;;;;;;54.48;22.35;;;;;;;-10.99;76.33;92760.58;1737040;81;21514;-75
2021/01/18 02:34:03;;;;;;;61.90;25.50;;;;;;;-11.07;76.42;92768.00;1827798;78;21293;-76
2021/01/18 02:36:51;;;;;;;61.00;27.27;;;;;;;-11.11;76.46;92769.62;1781733;80;21666;-77
2021/01/18 02:39:53;;;;;;;64.57;27.47;;;;;;;-11.19;76.68;92771.53;1850213;77;21182;-75
2021/01/18 02:42:26;;;;;;;55.00;23.47;;;;;;;-11.19;76.70;92773.38;1812983;77;21357;-75
2021/01/18 02:44:57;;;;;;;60.43;25.87;;;;;;;-11.25;76.87;92781.28;1843443;76;21300;-75
2021/01/18 02:47:31;;;;;;;64.37;25.00;;;;;;;-11.27;76.98;92787.89;1830707;77;21188;-77
2021/01/18 02:49:59;;;;;;;56.53;23.15;;;;;;;-11.27;77.21;92788.67;1825104;77;21150;-75
2021/01/18 02:52:26;;;;;;;55.83;26.13;;;;;;;-11.22;77.18;92793.62;1815888;77;21593;-75
2021/01/18 02:54:54;;;;;;;69.77;27.07;;;;;;;-11.26;77.06;92794.16;1809707;79;21614;-77
2021/01/18 02:57:21;;;;;;;58.20;25.50;;;;;;;-11.28;77.09;92787.64;1812437;79;22164;-75
2021/01/18 02:59:49;;;;;;;59.80;25.70;;;;;;;-11.31;77.17;92790.81;1836483;77;21063;-75
2021/01/18 03:02:47;;;;;;;54.23;23.90;;;;;;;-11.33;77.23;92783.20;1817892;77;21156;-75
2021/01/18 03:05:42;;;;;;;58.20;24.80;;;;;;;-11.31;77.30;92788.97;1788457;79;21159;-76
2021/01/18 03:08:27;;;;;;;54.98;23.50;;;;;;;-11.24;77.04;92784.72;1767346;79;21421;-75
2021/01/18 03:11:10;;;;;;;61.92;25.45;;;;;;;-11.24;76.83;92780.78;1807989;78;21174;-76
2021/01/18 03:13:47;;;;;;;64.77;25.60;;;;;;;-11.21;76.83;92783.36;1819048;78;21370;-76
2021/01/18 03:16:18;;;;;;;53.20;25.47;;;;;;;-11.20;76.77;92779.70;1810304;79;21374;-75
2021/01/18 03:18:46;;;;;;;56.37;23.30;;;;;;;-11.24;76.60;92778.16;1825888;78;21095;-77
2021/01/18 03:21:14;;;;;;;58.43;24.83;;;;;;;-11.24;76.60;92767.66;1850870;75;21421;-78
2021/01/18 03:23:43;;;;;;;54.67;23.10;;;;;;;-11.21;76.60;92781.52;1860571;76;21167;-77
2021/01/18 03:26:10;;;;;;;54.53;22.10;;;;;;;-11.22;76.58;92776.55;1847713;77;21153;-76
2021/01/18 03:28:38;;;;;;;52.47;23.73;;;;;;;-11.26;76.41;92786.29;1849083;76;21163;-76
2021/01/18 03:31:06;;;;;;;46.63;21.90;;;;;;;-11.32;76.52;92788.72;1864934;76;21131;-75
2021/01/18 03:33:34;;;;;;;38.30;18.27;;;;;;;-11.37;76.54;92779.56;1849171;76;21278;-76
2021/01/18 03:36:02;;;;;;;57.17;23.63;;;;;;;-11.41;76.56;92781.70;1847977;76;21167;-76
2021/01/18 03:38:29;;;;;;;62.43;26.20;;;;;;;-11.48;76.65;92784.63;1855472;76;21120;-76
2021/01/18 03:40:57;;;;;;;63.13;25.60;;;;;;;-11.52;76.72;92785.70;1862354;76;21056;-75
2021/01/18 03:43:24;;;;;;;60.37;25.30;;;;;;;-11.52;76.85;92784.40;1848248;77;21199;-76
2021/01/18 03:45:52;;;;;;;59.00;25.83;;;;;;;-11.55;76.88;92780.22;1833174;77;21207;-76
2021/01/18 03:48:19;;;;;;;49.73;23.60;;;;;;;-11.56;76.96;92778.66;1867514;76;21175;-76
2021/01/18 03:50:49;;;;;;;68.67;27.17;;;;;;;-11.57;76.99;92780.52;1845922;76;21919;-76
2021/01/18 03:53:18;;;;;;;72.63;30.07;;;;;;;-11.54;77.04;92775.25;1833575;76;21155;-77
2021/01/18 03:55:48;;;;;;;64.03;28.37;;;;;;;-11.46;76.94;92781.75;1871878;76;21182;-76
2021/01/18 03:58:18;;;;;;;59.27;24.87;;;;;;;-11.41;76.57;92769.89;1852526;77;22327;-76
2021/01/18 04:00:45;;;;;;;55.53;24.57;;;;;;;-11.42;76.35;92770.96;1818411;77;21197;-76
2021/01/18 04:03:13;;;;;;;56.83;24.20;;;;;;;-11.41;76.34;92768.58;1841363;77;21123;-77
2021/01/18 04:05:41;;;;;;;55.40;22.40;;;;;;;-11.44;76.37;92774.38;1836255;77;21193;-75
2021/01/18 04:08:09;;;;;;;49.17;21.93;;;;;;;-11.45;76.27;92772.28;1823116;77;21183;-78
2021/01/18 04:10:36;;;;;;;50.10;22.87;;;;;;;-11.48;76.25;92772.05;1852191;77;21255;-77
2021/01/18 04:13:05;;;;;;;53.83;24.33;;;;;;;-11.52;76.35;92769.19;1783004;80;21205;-76
2021/01/18 04:15:33;;;;;;;58.40;24.03;;;;;;;-11.50;76.27;92766.55;1827721;77;21618;-76
2021/01/18 04:18:01;;;;;;;54.80;22.50;;;;;;;-11.48;76.11;92768.11;1858992;76;21166;-77
2021/01/18 04:20:29;;;;;;;49.73;21.87;;;;;;;-11.53;76.10;92761.07;1854862;76;21165;-76
2021/01/18 04:22:58;;;;;;;51.37;21.73;;;;;;;-11.56;75.96;92767.64;1820452;76;21346;-76
2021/01/18 04:25:27;;;;;;;39.50;17.27;;;;;;;-11.60;76.06;92767.16;1874962;76;21459;-76
2021/01/18 04:28:00;;;;;;;48.47;20.67;;;;;;;-11.62;76.13;92764.82;1855367;76;21531;-75
2021/01/18 04:30:30;;;;;;;36.87;16.60;;;;;;;-11.66;76.05;92769.02;1827250;77;21188;-76
2021/01/18 04:33:03;;;;;;;49.07;20.60;;;;;;;-11.74;76.14;92767.77;1845654;76;21139;-77
2021/01/18 04:35:32;;;;;;;50.53;21.63;;;;;;;-11.79;76.24;92772.28;1870824;76;22248;-76
2021/01/18 04:38:00;;;;;;;41.83;21.83;;;;;;;-11.81;76.34;92772.56;1860431;75;21482;-76
2021/01/18 04:40:29;;;;;;;47.93;19.87;;;;;;;-11.83;76.36;92779.16;1870994;76;21136;-76
2021/01/18 04:42:57;;;;;;;47.50;20.27;;;;;;;-11.83;76.43;92773.91;1870739;76;21155;-77
2021/01/18 04:45:26;;;;;;;50.80;21.90;;;;;;;-11.83;76.35;92782.53;1846763;76;21120;-76
2021/01/18 04:47:56;;;;;;;49.70;20.40;;;;;;;-11.86;76.36;92781.00;1850617;76;21340;-76
2021/01/18 04:50:27;;;;;;;43.27;19.83;;;;;;;-11.86;76.49;92773.14;1874573;76;21179;-78
2021/01/18 04:53:16;;;;;;;47.27;19.40;;;;;;;-11.83;76.40;92778.59;1873808;76;21151;-76
2021/01/18 04:55:55;;;;;;;48.63;20.10;;;;;;;-11.85;76.28;92776.01;1873052;76;21194;-76
2021/01/18 04:58:24;;;;;;;52.67;21.20;;;;;;;-11.88;76.22;92776.55;1839623;78;21175;-76
2021/01/18 05:00:55;;;;;;;36.30;17.10;;;;;;;-11.88;76.17;92780.48;1866265;76;21335;-76
2021/01/18 05:03:25;;;;;;;43.63;19.33;;;;;;;-11.92;76.27;92778.95;1874480;76;21174;-76
2021/01/18 05:06:04;;;;;;;55.97;22.07;;;;;;;-11.91;76.29;92786.30;1873502;76;21140;-75
2021/01/18 05:09:02;;;;;;;56.63;25.63;;;;;;;-11.93;76.25;92796.25;1874694;76;21151;-76
2021/01/18 05:11:30;;;;;;;45.77;21.43;;;;;;;-11.97;76.25;92795.23;1861840;76;21169;-77
2021/01/18 05:14:01;;;;;;;57.63;24.43;;;;;;;-11.94;76.32;92798.63;1790854;79;21349;-77
2021/01/18 05:16:35;;;;;;;46.40;19.57;;;;;;;-11.94;76.08;92799.94;1873013;76;21162;-76
2021/01/18 05:19:11;;;;;;;53.73;24.18;;;;;;;-11.92;76.12;92803.87;1875093;76;21096;-76
2021/01/18 05:21:43;;;;;;;52.67;23.73;;;;;;;-11.91;75.97;92807.27;1874533;76;21187;-76
2021/01/18 05:24:10;;;;;;;51.10;25.23;;;;;;;-11.94;75.82;92807.27;1874937;76;21095;-76
2021/01/18 05:26:38;;;;;;;57.83;23.03;;;;;;;-11.97;75.92;92808.34;1874306;76;21163;-76
2021/01/18 05:29:06;;;;;;;50.93;23.20;;;;;;;-12.00;75.84;92809.16;1874876;76;21112;-76
2021/01/18 05:31:39;;;;;;;47.63;21.80;;;;;;;-12.03;75.88;92811.53;1841080;77;21144;-77
2021/01/18 05:34:15;;;;;;;54.00;23.07;;;;;;;-12.04;75.98;92815.19;1873644;75;21167;-79
2021/01/18 05:36:46;;;;;;;45.43;19.63;;;;;;;-12.06;76.04;92812.84;1836278;76;21110;-77
2021/01/18 05:39:19;;;;;;;56.27;21.70;;;;;;;-12.03;75.95;92817.55;1840101;76;21331;-77
2021/01/18 05:41:52;;;;;;;37.80;16.50;;;;;;;-12.04;75.74;92812.56;1869408;76;21629;-76
2021/01/18 05:44:23;;;;;;;45.63;18.13;;;;;;;-12.04;75.80;92814.66;1853560;76;21445;-78
2021/01/18 05:46:51;;;;;;;50.73;21.47;;;;;;;-12.06;75.70;92816.00;1872446;76;21519;-77
2021/01/18 05:49:19;;;;;;;53.97;21.70;;;;;;;-12.07;75.46;92820.97;1777568;78;21187;-76
2021/01/18 05:51:51;;;;;;;51.07;23.43;;;;;;;-12.12;75.47;92828.33;1831755;77;22228;-75
2021/01/18 05:54:24;;;;;;;49.00;20.00;;;;;;;-12.13;75.44;92829.92;1873046;76;21159;-78
2021/01/18 05:56:53;;;;;;;54.90;20.60;;;;;;;-12.16;75.34;92837.02;1872721;76;21183;-75
2021/01/18 05:59:25;;;;;;;44.73;20.40;;;;;;;-12.20;75.51;92830.21;1871128;76;21186;-76
2021/01/18 06:01:53;;;;;;;50.20;20.10;;;;;;;-12.21;75.54;92831.27;1815021;79;21196;-76
2021/01/18 06:04:24;;;;;;;57.60;22.13;;;;;;;-12.20;75.56;92832.83;1847805;77;21426;-75
2021/01/18 06:07:02;;;;;;;53.17;22.27;;;;;;;-12.24;75.37;92832.58;1827466;77;21743;-76
2021/01/18 06:09:43;;;;;;;76.67;30.77;;;;;;;-12.28;75.52;92837.33;1842943;75;21175;-76
2021/01/18 06:12:25;;;;;;;78.10;31.67;;;;;;;-12.30;75.57;92842.03;1869418;76;21167;-77
2021/01/18 06:15:11;;;;;;;75.73;30.87;;;;;;;-12.33;75.68;92842.06;1858198;76;21190;-76
2021/01/18 06:17:48;;;;;;;66.47;25.63;;;;;;;-12.35;75.75;92840.23;1858971;76;21448;-77
2021/01/18 06:20:22;;;;;;;62.90;25.03;;;;;;;-12.34;75.69;92846.25;1871965;76;21521;-75
2021/01/18 06:22:54;;;;;;;73.60;27.93;;;;;;;-12.38;75.79;92848.62;1871856;76;21705;-77
2021/01/18 06:25:23;;;;;;;72.70;28.97;;;;;;;-12.38;75.91;92841.28;1873149;76;21158;-76
2021/01/18 06:27:51;;;;;;;60.83;27.97;;;;;;;-12.39;75.94;92840.51;1839526;76;21191;-75
2021/01/18 06:30:30;;;;;;;64.70;26.57;;;;;;;-12.40;75.79;92845.50;1835285;76;22268;-77
2021/01/18 06:33:05;;;;;;;57.67;25.73;;;;;;;-12.42;75.81;92848.12;1869246;76;21753;-76
2021/01/18 06:35:33;;;;;;;55.47;23.57;;;;;;;-12.40;75.85;92852.58;1826105;76;21147;-76
2021/01/18 06:38:06;;;;;;;53.37;22.80;;;;;;;-12.38;75.84;92845.22;1872773;76;21159;-76
2021/01/18 06:40:40;;;;;;;72.07;30.03;;;;;;;-12.39;75.77;92847.05;1873353;76;21171;-78
2021/01/18 06:43:09;;;;;;;54.20;24.05;;;;;;;-12.41;75.70;92853.11;1834164;76;22283;-75
2021/01/18 06:45:41;;;;;;;60.30;22.50;;;;;;;-12.46;75.77;92858.34;1840722;76;21175;-76
2021/01/18 06:48:10;;;;;;;54.57;22.50;;;;;;;-12.45;75.80;92858.59;1864542;76;21179;-77
2021/01/18 06:50:39;;;;;;;53.27;22.70;;;;;;;-12.43;76.00;92862.27;1842954;77;21450;-78
2021/01/18 06:53:25;;;;;;;54.13;23.63;;;;;;;-12.41;75.85;92855.73;1732942;81;21215;-77
2021/01/18 06:56:38;;;;;;;47.23;19.60;;;;;;;-12.39;75.81;92864.09;1802650;79;21367;-79
2021/01/18 06:59:34;;;;;;;57.20;23.50;;;;;;;-12.37;75.86;92865.93;1724177;82;21218;-75
2021/01/18 07:02:23;;;;;;;51.47;22.90;;;;;;;-12.33;75.88;92864.34;1803412;79;21227;-76
2021/01/18 07:04:51;;;;;;;61.67;23.83;;;;;;;-12.30;75.66;92859.85;1810617;79;21634;-79
2021/01/18 07:07:26;;;;;;;59.80;23.80;;;;;;;-12.32;75.55;92873.77;1811424;79;21155;-76
2021/01/18 07:09:58;;;;;;;52.57;22.77;;;;;;;-12.27;75.61;92869.02;1811264;78;22090;-76
2021/01/18 07:12:27;;;;;;;55.87;23.17;;;;;;;-12.25;75.21;92869.02;1811262;79;21203;-76
2021/01/18 07:15:02;;;;;;;45.40;22.67;;;;;;;-12.25;75.25;92869.55;1808759;79;21136;-77
2021/01/18 07:17:44;;;;;;;52.33;22.13;;;;;;;-12.24;75.12;92868.49;1775116;80;21634;-77
2021/01/18 07:20:25;;;;;;;39.70;18.67;;;;;;;-12.21;75.12;92877.14;1800918;79;21096;-77
2021/01/18 07:23:30;;;;;;;54.60;22.30;;;;;;;-12.20;74.92;92872.67;1834006;77;22098;-77
2021/01/18 07:26:14;;;;;;;57.40;23.93;;;;;;;-12.22;74.84;92880.81;1789183;77;21154;-78
2021/01/18 07:28:45;;;;;;;59.93;26.50;;;;;;;-12.19;75.01;92879.48;1828980;77;21179;-77
2021/01/18 07:31:18;;;;;;;57.07;22.60;;;;;;;-12.17;74.90;92881.31;1842198;76;21132;-79
2021/01/18 07:33:45;;;;;;;56.47;23.53;;;;;;;-12.13;74.94;92882.34;1836644;78;21181;-78
2021/01/18 07:36:24;;;;;;;58.13;22.73;;;;;;;-12.08;74.91;92885.72;1861507;76;22294;-78
2021/01/18 07:38:53;;;;;;;54.47;23.70;;;;;;;-12.04;74.76;92889.37;1831651;78;21173;-78
2021/01/18 07:41:29;;;;;;;45.40;20.40;;;;;;;-11.96;74.55;92891.96;1806268;78;21196;-77
2021/01/18 07:43:51;;;;;;;47.27;21.00;;;;;;;-11.88;74.48;92891.42;1843464;76;21174;-77
2021/01/18 07:46:32;;;;;;;50.37;21.80;;;;;;;-11.64;74.93;92889.44;1866282;76;21651;-79
2021/01/18 07:49:14;;;;;;;43.33;19.47;;;;;;;-11.33;74.60;92887.40;1863449;76;22431;-78
2021/01/18 07:51:42;;;;;;;45.33;20.47;;;;;;;-10.88;74.08;92888.90;1807072;78;21233;-78
2021/01/18 07:54:33;;;;;;;54.77;22.67;;;;;;;-10.46;73.20;92888.78;1821976;78;21167;-78
2021/01/18 07:57:24;;;;;;;43.40;20.47;;;;;;;-10.19;71.56;92886.92;1835289;77;21157;-79
2021/01/18 08:00:01;;;;;;;45.80;20.63;;;;;;;-10.11;70.31;92894.19;1858397;77;21164;-77
2021/01/18 08:02:31;;;;;;;48.73;22.97;;;;;;;-10.12;69.86;92882.08;1842574;77;21192;-78
2021/01/18 08:04:58;;;;;;;57.30;25.23;;;;;;;-10.13;69.43;92889.73;1842843;76;21159;-78
2021/01/18 08:07:26;;;;;;;57.37;24.87;;;;;;;-10.20;68.85;92890.59;1815517;77;21149;-78
2021/01/18 08:09:54;;;;;;;48.47;21.90;;;;;;;-10.30;68.80;92888.90;1848281;77;21444;-78
2021/01/18 08:12:35;;;;;;;47.50;22.43;;;;;;;-10.36;68.88;92886.59;1842400;77;22147;-77
2021/01/18 08:15:06;;;;;;;49.20;22.87;;;;;;;-10.43;68.59;92891.39;1842133;77;22720;-76
2021/01/18 08:17:35;;;;;;;50.33;22.63;;;;;;;-10.52;68.79;92890.69;1840621;77;21453;-78
2021/01/18 08:20:22;;;;;;;47.43;20.33;;;;;;;-10.46;69.16;92891.41;1866145;76;21249;-78
2021/01/18 08:22:48;;;;;;;46.08;19.02;;;;;;;-10.31;69.31;92892.56;1833201;76;21192;-78
2021/01/18 08:25:15;;;;;;;40.63;20.17;;;;;;;-10.02;69.08;92894.34;1817288;78;21283;-78
2021/01/18 08:27:48;;;;;;;53.40;22.70;;;;;;;-9.77;69.20;92899.85;1829295;76;21344;-76
2021/01/18 08:30:23;;;;;;;43.30;20.17;;;;;;;-9.51;68.48;92895.56;1873896;76;21794;-77
2021/01/18 08:33:00;;;;;;;41.93;19.73;;;;;;;-9.28;68.06;92895.28;1872533;76;21193;-76
2021/01/18 08:35:31;;;;;;;45.57;20.57;;;;;;;-9.11;67.28;92900.27;1871914;76;21139;-78
2021/01/18 08:38:06;;;;;;;37.87;18.30;;;;;;;-8.89;67.17;92894.95;1825159;76;21224;-77
2021/01/18 08:40:54;;;;;;;56.63;24.47;;;;;;;-8.64;66.71;92897.73;1834824;77;21210;-78
2021/01/18 08:43:26;;;;;;;46.70;22.23;;;;;;;-8.43;65.93;92901.58;1861955;76;21452;-78
2021/01/18 08:45:58;;;;;;;41.50;20.57;;;;;;;-8.36;65.02;92905.13;1842232;77;21103;-77
2021/01/18 08:48:27;;;;;;;47.73;22.27;;;;;;;-8.30;64.50;92905.30;1816301;77;21128;-77
2021/01/18 08:50:56;;;;;;;45.83;21.87;;;;;;;-8.25;64.22;92909.70;1872758;76;21095;-77
2021/01/18 08:53:32;;;;;;;44.23;21.70;;;;;;;-8.33;63.40;92901.91;1822313;76;21322;-77
2021/01/18 08:56:07;;;;;;;44.90;22.30;;;;;;;-8.36;63.80;92909.09;1857127;76;21092;-77
2021/01/18 08:58:43;;;;;;;41.53;22.37;;;;;;;-8.23;63.72;92897.02;1867520;76;21088;-77
2021/01/18 09:01:21;;;;;;;38.47;19.03;;;;;;;-8.02;63.21;92902.14;1858662;77;21088;-79
2021/01/18 09:04:07;;;;;;;48.20;21.13;;;;;;;-7.90;62.51;92909.58;1815334;78;21538;-77
2021/01/18 09:06:37;;;;;;;52.77;24.20;;;;;;;-7.89;62.06;92908.52;1815144;77;22669;-77
2021/01/18 09:09:06;;;;;;;49.10;22.67;;;;;;;-7.86;61.85;92900.80;1788146;79;21164;-78
2021/01/18 09:11:35;;;;;;;45.70;21.33;;;;;;;-7.75;62.24;92901.36;1865482;75;21100;-77
2021/01/18 09:14:04;;;;;;;44.80;21.00;;;;;;;-7.67;61.59;92898.06;1857142;76;21092;-78
2021/01/18 09:16:32;;;;;;;48.73;21.73;;;;;;;-7.66;61.37;92898.84;1860508;76;21092;-77
2021/01/18 09:19:06;;;;;;;52.07;23.90;;;;;;;-7.72;61.08;92896.05;1872059;76;22046;-77
2021/01/18 09:21:37;;;;;;;43.13;21.13;;;;;;;-7.86;60.39;92902.12;1872317;76;21107;-77
2021/01/18 09:24:07;;;;;;;44.97;21.97;;;;;;;-8.07;60.43;92900.39;1831549;76;21119;-76
2021/01/18 09:26:35;;;;;;;47.97;21.97;;;;;;;-8.21;60.65;92894.84;1873303;76;21101;-76
2021/01/18 09:29:05;;;;;;;50.40;24.23;;;;;;;-8.40;60.76;92901.54;1875363;76;21087;-76
2021/01/18 09:31:33;;;;;;;43.37;20.37;;;;;;;-8.62;61.25;92893.72;1878611;76;21848;-76
2021/01/18 09:34:11;;;;;;;44.00;20.07;;;;;;;-8.79;61.29;92891.39;1865566;76;21237;-77
2021/01/18 09:36:42;;;;;;;47.40;21.80;;;;;;;-9.00;61.59;92892.22;1818906;76;21621;-77
2021/01/18 09:39:20;;;;;;;41.70;19.70;;;;;;;-9.18;62.15;92896.43;1875935;76;21119;-76
2021/01/18 09:41:51;;;;;;;47.40;20.77;;;;;;;-9.30;62.43;92887.64;1844495;76;21124;-77
2021/01/18 09:44:18;;;;;;;43.30;20.77;;;;;;;-9.38;62.82;92895.65;1840471;77;21595;-76
2021/01/18 09:46:46;;;;;;;45.50;20.37;;;;;;;-9.44;62.96;92898.63;1830145;77;21216;-77
2021/01/18 09:49:25;;;;;;;39.53;19.73;;;;;;;-9.52;63.32;92894.00;1808190;78;21185;-76
2021/01/18 09:51:52;;;;;;;34.10;17.33;;;;;;;-9.54;63.53;92891.13;1772775;79;21134;-76
2021/01/18 09:54:20;;;;;;;47.03;21.23;;;;;;;-9.58;63.62;92890.67;1802253;78;21698;-75
2021/01/18 09:56:53;;;;;;;47.17;21.87;;;;;;;-9.60;63.71;92888.84;1833307;78;21187;-76
2021/01/18 09:59:22;;;;;;;44.03;19.98;;;;;;;-9.64;63.71;92895.20;1785647;78;21177;-75
2021/01/18 10:01:52;;;;;;;42.10;20.70;;;;;;;-9.62;64.45;92888.35;1719057;80;21228;-75
2021/01/18 10:04:27;;;;;;;40.17;19.97;;;;;;;-9.50;64.33;92890.56;1752137;80;21555;-76
2021/01/18 10:06:51;;;;;;;34.50;15.90;;;;;;;-9.46;64.16;92893.66;1777170;78;21137;-75
2021/01/18 10:09:21;;;;;;;41.10;20.47;;;;;;;-9.45;63.54;92899.70;1776496;79;21724;-76
2021/01/18 10:11:50;;;;;;;45.50;22.20;;;;;;;-9.48;63.93;92885.25;1805150;79;21197;-77
2021/01/18 10:14:22;;;;;;;35.10;17.70;;;;;;;-9.46;64.04;92888.39;1809247;79;21171;-75
2021/01/18 10:17:07;;;;;;;40.23;18.50;;;;;;;-9.47;64.06;92880.25;1808932;79;21694;-76
2021/01/18 10:19:40;;;;;;;36.48;16.35;;;;;;;-9.47;64.33;92885.52;1809462;79;21148;-76
2021/01/18 10:22:21;;;;;;;38.17;18.10;;;;;;;-9.43;64.14;92891.78;1810506;79;21522;-76
2021/01/18 10:24:57;;;;;;;44.80;19.20;;;;;;;-9.44;64.09;92886.78;1810122;79;21662;-77
2021/01/18 10:27:27;;;;;;;40.17;19.87;;;;;;;-9.48;64.18;92882.62;1784286;79;21110;-75
2021/01/18 10:30:14;;;;;;;39.73;17.77;;;;;;;-9.54;64.06;92882.45;1810159;79;21181;-76
2021/01/18 10:32:44;;;;;;;45.43;19.63;;;;;;;-9.61;64.07;92884.11;1810458;77;21690;-75
2021/01/18 10:35:27;;;;;;;43.10;18.60;;;;;;;-9.62;64.81;92883.09;1809882;79;22472;-76
2021/01/18 10:38:22;;;;;;;42.37;20.10;;;;;;;-9.56;64.73;92880.09;1810166;79;21142;-76
2021/01/18 10:41:06;;;;;;;37.87;17.97;;;;;;;-9.38;65.36;92881.70;1810178;79;21121;-78
2021/01/18 10:43:35;;;;;;;40.12;19.60;;;;;;;-9.21;65.04;92887.27;1808050;79;21118;-75
2021/01/18 10:46:14;;;;;;;35.47;18.13;;;;;;;-9.11;64.43;92881.05;1810375;78;21456;-75
2021/01/18 10:48:42;;;;;;;39.10;19.00;;;;;;;-9.11;63.75;92876.56;1819378;78;21355;-76
2021/01/18 10:51:10;;;;;;;40.70;19.23;;;;;;;-9.13;64.11;92877.40;1811534;77;21107;-75
2021/01/18 10:53:38;;;;;;;36.10;17.33;;;;;;;-9.11;63.96;92875.78;1761839;79;21129;-75
2021/01/18 10:56:16;;;;;;;44.90;18.40;;;;;;;-9.07;64.12;92884.67;1781176;80;21130;-76
2021/01/18 10:58:44;;;;;;;38.87;17.57;;;;;;;-9.01;63.93;92887.49;1788384;79;21175;-75
2021/01/18 11:01:14;;;;;;;43.00;20.43;;;;;;;-9.05;63.35;92884.65;1782728;79;40959;-77
2021/01/18 11:03:42;;;;;;;32.97;17.23;;;;;;;-9.13;63.36;92883.20;1809773;79;21235;-76
2021/01/18 11:06:15;;;;;;;43.10;19.70;;;;;;;-9.24;63.20;92881.25;1809204;79;21622;-75
2021/01/18 11:08:43;;;;;;;43.57;20.07;;;;;;;-9.33;63.21;92884.26;1809046;79;21154;-76
2021/01/18 11:11:25;;;;;;;37.23;17.63;;;;;;;-9.40;63.57;92882.00;1809664;79;21113;-76
2021/01/18 11:14:05;;;;;;;45.30;22.37;;;;;;;-9.51;63.16;92882.40;1810067;77;22659;-75
2021/01/18 11:16:33;;;;;;;39.63;19.63;;;;;;;-9.76;63.38;92880.36;1809542;79;21147;-77
2021/01/18 11:19:03;;;;;;;45.10;20.90;;;;;;;-9.85;64.29;92880.75;1809551;79;21107;-76
2021/01/18 11:21:30;;;;;;;42.63;21.67;;;;;;;-9.91;64.45;92880.02;1810613;78;21162;-76
2021/01/18 11:23:58;;;;;;;44.50;21.23;;;;;;;-9.94;64.45;92881.11;1810462;79;21079;-76
2021/01/18 11:26:25;;;;;;;39.40;19.57;;;;;;;-9.97;64.60;92875.09;1809972;79;21169;-77
2021/01/18 11:28:53;;;;;;;39.27;18.93;;;;;;;-9.94;64.77;92876.63;1810328;79;21609;-76
2021/01/18 11:31:21;;;;;;;36.03;16.53;;;;;;;-9.86;64.77;92875.99;1810083;78;21163;-76
2021/01/18 11:33:48;;;;;;;37.97;16.57;;;;;;;-9.80;64.79;92882.77;1809285;79;21173;-75
2021/01/18 11:36:16;;;;;;;40.87;20.13;;;;;;;-9.77;64.78;92880.12;1809750;79;21187;-75
2021/01/18 11:38:44;;;;;;;43.77;19.57;;;;;;;-9.70;65.23;92879.75;1759045;78;21200;-76